createdAt,value
2023-03-31T00:07:08.585Z,13.2
2023-03-31T00:22:10.222Z,11
2023-03-31T00:37:11.851Z,8.8
2023-03-31T00:52:13.561Z,8.8
2023-03-31T01:07:15.247Z,8.8
2023-03-31T01:22:16.881Z,6.6
2023-03-31T01:37:18.532Z,6.6
2023-03-31T01:52:20.246Z,4.4
2023-03-31T02:07:21.958Z,2.2
2023-03-31T02:22:23.615Z,0
2023-03-31T02:37:25.269Z,0
2023-03-31T02:52:26.937Z,0
2023-03-31T03:07:28.621Z,0
2023-03-31T03:22:30.270Z,0
2023-03-31T03:37:31.978Z,0
2023-03-31T03:52:33.630Z,0
2023-03-31T04:07:35.264Z,0
2023-03-31T04:22:36.887Z,0
2023-03-31T04:37:38.540Z,0
2023-03-31T04:52:40.218Z,0
2023-03-31T05:07:41.903Z,0
2023-03-31T05:22:44.110Z,0
2023-03-31T05:37:45.890Z,0
2023-03-31T05:52:47.528Z,0
2023-03-31T06:07:49.164Z,0
2023-03-31T06:22:50.809Z,0
2023-03-31T06:37:52.458Z,0
2023-03-31T06:52:54.094Z,0
2023-03-31T07:07:55.749Z,0
2023-03-31T07:22:57.373Z,0
2023-03-31T07:37:59.015Z,0
2023-03-31T07:53:00.689Z,0
2023-03-31T08:08:02.371Z,0
2023-03-31T08:23:04.002Z,0
2023-03-31T08:38:05.642Z,0
2023-03-31T08:53:07.316Z,0
2023-03-31T09:08:09.005Z,0
2023-03-31T09:23:10.659Z,0
2023-03-31T09:38:12.311Z,0
2023-03-31T09:53:13.972Z,0
2023-03-31T10:08:15.595Z,0
2023-03-31T10:23:17.252Z,0
2023-03-31T10:38:19.043Z,0
2023-03-31T10:53:20.674Z,0
2023-03-31T11:08:22.314Z,0
2023-03-31T11:23:23.982Z,0
2023-03-31T11:38:25.624Z,0
2023-03-31T11:53:27.226Z,0
2023-03-31T12:08:28.854Z,0
2023-03-31T12:23:30.505Z,0
2023-03-31T12:38:32.133Z,0
2023-03-31T12:53:33.804Z,0
2023-03-31T13:08:35.460Z,0
2023-03-31T13:23:37.152Z,0
2023-03-31T13:38:38.887Z,0
2023-03-31T13:53:40.534Z,2.2
2023-03-31T14:08:42.169Z,2.2
2023-03-31T14:23:43.806Z,4.4
2023-03-31T14:38:45.489Z,4.4
2023-03-31T14:53:47.141Z,6.6
2023-03-31T15:08:48.806Z,11
2023-03-31T15:23:50.426Z,11
2023-03-31T15:38:52.078Z,17.6
2023-03-31T15:53:53.784Z,13.2
2023-03-31T16:08:55.460Z,13.2
2023-03-31T16:23:57.099Z,26.4
2023-03-31T17:45:04.718Z,26.4
2023-03-31T18:00:06.411Z,24.2
2023-03-31T18:15:08.073Z,26.4
2023-03-31T18:30:09.775Z,22
2023-03-31T18:45:11.418Z,24.2
2023-03-31T19:00:13.062Z,22
2023-03-31T19:15:14.977Z,22
2023-03-31T19:30:16.641Z,24.2
2023-03-31T19:45:18.315Z,28.6
2023-03-31T20:00:19.985Z,30.8
2023-03-31T20:15:21.660Z,26.4
2023-03-31T20:30:23.306Z,22
2023-03-31T20:45:24.939Z,19.8
2023-03-31T21:00:26.554Z,19.8
2023-03-31T21:15:28.287Z,17.6
2023-03-31T21:30:29.948Z,11
2023-03-31T21:45:31.874Z,11
2023-03-31T22:00:33.703Z,11
2023-03-31T22:15:35.456Z,19.8
2023-03-31T22:30:37.231Z,13.2
2023-03-31T22:45:38.891Z,19.8
2023-03-31T23:00:40.594Z,19.8
2023-03-31T23:15:42.263Z,13.2
2023-03-31T23:30:43.828Z,11
2023-03-31T23:45:45.491Z,13.2
